sensor_id;sensor_type;location;lat;lon;timestamp;P1;durP1;ratioP1;P2;durP2;ratioP2
40314;SDS011;26021;45.640;11.302;2023-11-19T00:00:19;26.33;;;15.48;;
40314;SDS011;26021;45.640;11.302;2023-11-19T00:02:44;23.73;;;15.30;;
40314;SDS011;26021;45.640;11.302;2023-11-19T00:05:10;26.98;;;15.65;;
40314;SDS011;26021;45.640;11.302;2023-11-19T00:07:39;31.67;;;17.85;;
40314;SDS011;26021;45.640;11.302;2023-11-19T00:10:11;25.08;;;16.58;;
40314;SDS011;26021;45.640;11.302;2023-11-19T00:12:38;31.88;;;19.42;;
40314;SDS011;26021;45.640;11.302;2023-11-19T00:15:05;26.42;;;15.65;;
40314;SDS011;26021;45.640;11.302;2023-11-19T00:17:31;22.17;;;15.27;;
40314;SDS011;26021;45.640;11.302;2023-11-19T00:19:57;22.27;;;13.93;;
40314;SDS011;26021;45.640;11.302;2023-11-19T00:22:22;22.92;;;15.38;;
40314;SDS011;26021;45.640;11.302;2023-11-19T00:24:48;21.15;;;14.48;;
40314;SDS011;26021;45.640;11.302;2023-11-19T00:27:13;22.08;;;14.27;;
40314;SDS011;26021;45.640;11.302;2023-11-19T00:29:39;23.35;;;13.10;;
40314;SDS011;26021;45.640;11.302;2023-11-19T00:32:05;18.10;;;12.57;;
40314;SDS011;26021;45.640;11.302;2023-11-19T00:34:32;18.73;;;12.82;;
40314;SDS011;26021;45.640;11.302;2023-11-19T00:36:58;19.63;;;13.38;;
40314;SDS011;26021;45.640;11.302;2023-11-19T00:39:23;17.77;;;11.23;;
40314;SDS011;26021;45.640;11.302;2023-11-19T00:41:48;22.08;;;11.93;;
40314;SDS011;26021;45.640;11.302;2023-11-19T00:44:14;21.00;;;12.15;;
40314;SDS011;26021;45.640;11.302;2023-11-19T00:46:39;16.23;;;11.07;;
40314;SDS011;26021;45.640;11.302;2023-11-19T00:49:05;26.02;;;14.98;;
40314;SDS011;26021;45.640;11.302;2023-11-19T00:51:30;17.48;;;11.88;;
40314;SDS011;26021;45.640;11.302;2023-11-19T00:53:56;17.50;;;12.40;;
40314;SDS011;26021;45.640;11.302;2023-11-19T00:56:22;20.10;;;12.05;;
40314;SDS011;26021;45.640;11.302;2023-11-19T00:58:48;18.73;;;11.70;;
40314;SDS011;26021;45.640;11.302;2023-11-19T01:01:13;16.02;;;11.05;;
40314;SDS011;26021;45.640;11.302;2023-11-19T01:03:39;17.73;;;12.20;;
40314;SDS011;26021;45.640;11.302;2023-11-19T01:06:05;19.10;;;12.20;;
40314;SDS011;26021;45.640;11.302;2023-11-19T01:08:31;16.55;;;11.07;;
40314;SDS011;26021;45.640;11.302;2023-11-19T01:10:56;64.90;;;31.98;;
40314;SDS011;26021;45.640;11.302;2023-11-19T01:13:21;22.63;;;13.32;;
40314;SDS011;26021;45.640;11.302;2023-11-19T01:15:47;18.30;;;11.93;;
40314;SDS011;26021;45.640;11.302;2023-11-19T01:18:13;18.98;;;12.43;;
40314;SDS011;26021;45.640;11.302;2023-11-19T01:20:38;18.02;;;11.43;;
40314;SDS011;26021;45.640;11.302;2023-11-19T01:23:04;21.13;;;12.73;;
40314;SDS011;26021;45.640;11.302;2023-11-19T01:25:30;17.20;;;11.80;;
40314;SDS011;26021;45.640;11.302;2023-11-19T01:27:55;18.88;;;12.10;;
40314;SDS011;26021;45.640;11.302;2023-11-19T01:30:23;18.52;;;12.63;;
40314;SDS011;26021;45.640;11.302;2023-11-19T01:32:49;19.02;;;12.43;;
40314;SDS011;26021;45.640;11.302;2023-11-19T01:35:15;16.95;;;11.30;;
40314;SDS011;26021;45.640;11.302;2023-11-19T01:37:40;19.13;;;11.30;;
40314;SDS011;26021;45.640;11.302;2023-11-19T01:40:06;18.98;;;11.63;;
40314;SDS011;26021;45.640;11.302;2023-11-19T01:42:39;19.38;;;11.65;;
40314;SDS011;26021;45.640;11.302;2023-11-19T01:45:06;20.23;;;12.57;;
40314;SDS011;26021;45.640;11.302;2023-11-19T01:47:35;20.05;;;12.50;;
40314;SDS011;26021;45.640;11.302;2023-11-19T01:50:01;16.85;;;11.18;;
40314;SDS011;26021;45.640;11.302;2023-11-19T01:52:31;16.00;;;11.38;;
40314;SDS011;26021;45.640;11.302;2023-11-19T01:54:59;17.15;;;11.20;;
40314;SDS011;26021;45.640;11.302;2023-11-19T01:57:25;15.63;;;11.10;;
40314;SDS011;26021;45.640;11.302;2023-11-19T01:59:51;18.08;;;10.55;;
40314;SDS011;26021;45.640;11.302;2023-11-19T02:02:18;14.73;;;10.02;;
40314;SDS011;26021;45.640;11.302;2023-11-19T02:04:49;15.00;;;10.00;;
40314;SDS011;26021;45.640;11.302;2023-11-19T02:07:17;14.23;;;9.60;;
40314;SDS011;26021;45.640;11.302;2023-11-19T02:09:43;15.82;;;10.13;;
40314;SDS011;26021;45.640;11.302;2023-11-19T02:12:09;14.82;;;9.80;;
40314;SDS011;26021;45.640;11.302;2023-11-19T02:14:36;16.17;;;10.88;;
40314;SDS011;26021;45.640;11.302;2023-11-19T02:17:02;17.45;;;10.90;;
40314;SDS011;26021;45.640;11.302;2023-11-19T02:19:28;14.30;;;11.20;;
40314;SDS011;26021;45.640;11.302;2023-11-19T02:21:54;17.55;;;10.20;;
40314;SDS011;26021;45.640;11.302;2023-11-19T02:24:21;15.38;;;10.30;;
40314;SDS011;26021;45.640;11.302;2023-11-19T02:29:25;14.80;;;10.63;;
40314;SDS011;26021;45.640;11.302;2023-11-19T02:31:51;17.88;;;10.38;;
40314;SDS011;26021;45.640;11.302;2023-11-19T02:34:16;17.15;;;11.60;;
40314;SDS011;26021;45.640;11.302;2023-11-19T02:36:41;17.15;;;11.30;;
40314;SDS011;26021;45.640;11.302;2023-11-19T02:39:07;15.25;;;10.45;;
40314;SDS011;26021;45.640;11.302;2023-11-19T02:41:36;15.60;;;10.00;;
40314;SDS011;26021;45.640;11.302;2023-11-19T02:44:04;13.55;;;10.35;;
40314;SDS011;26021;45.640;11.302;2023-11-19T02:46:31;14.88;;;10.73;;
40314;SDS011;26021;45.640;11.302;2023-11-19T02:48:57;14.85;;;10.07;;
40314;SDS011;26021;45.640;11.302;2023-11-19T02:51:22;13.02;;;10.13;;
40314;SDS011;26021;45.640;11.302;2023-11-19T02:53:48;15.73;;;9.80;;
40314;SDS011;26021;45.640;11.302;2023-11-19T02:56:13;16.02;;;10.27;;
40314;SDS011;26021;45.640;11.302;2023-11-19T02:58:50;16.67;;;10.13;;
40314;SDS011;26021;45.640;11.302;2023-11-19T03:01:25;16.50;;;11.05;;
40314;SDS011;26021;45.640;11.302;2023-11-19T03:04:00;17.75;;;10.70;;
40314;SDS011;26021;45.640;11.302;2023-11-19T03:06:27;18.95;;;11.60;;
40314;SDS011;26021;45.640;11.302;2023-11-19T03:08:54;16.35;;;10.88;;
40314;SDS011;26021;45.640;11.302;2023-11-19T03:11:20;17.98;;;11.13;;
40314;SDS011;26021;45.640;11.302;2023-11-19T03:13:45;18.45;;;10.73;;
40314;SDS011;26021;45.640;11.302;2023-11-19T03:16:11;17.90;;;10.88;;
40314;SDS011;26021;45.640;11.302;2023-11-19T03:18:37;17.88;;;10.68;;
40314;SDS011;26021;45.640;11.302;2023-11-19T03:21:04;20.67;;;11.30;;
40314;SDS011;26021;45.640;11.302;2023-11-19T03:23:31;16.83;;;10.85;;
40314;SDS011;26021;45.640;11.302;2023-11-19T03:25:56;16.27;;;10.38;;
40314;SDS011;26021;45.640;11.302;2023-11-19T03:28:22;13.20;;;10.23;;
40314;SDS011;26021;45.640;11.302;2023-11-19T03:30:47;16.67;;;11.18;;
40314;SDS011;26021;45.640;11.302;2023-11-19T03:33:13;17.40;;;11.23;;
40314;SDS011;26021;45.640;11.302;2023-11-19T03:35:38;15.77;;;10.88;;
40314;SDS011;26021;45.640;11.302;2023-11-19T03:38:06;15.35;;;10.27;;
40314;SDS011;26021;45.640;11.302;2023-11-19T03:40:31;18.30;;;11.30;;
40314;SDS011;26021;45.640;11.302;2023-11-19T03:42:57;18.48;;;10.88;;
40314;SDS011;26021;45.640;11.302;2023-11-19T03:45:23;16.73;;;10.65;;
40314;SDS011;26021;45.640;11.302;2023-11-19T03:47:48;15.63;;;10.20;;
40314;SDS011;26021;45.640;11.302;2023-11-19T03:50:15;18.75;;;11.43;;
40314;SDS011;26021;45.640;11.302;2023-11-19T03:52:40;17.83;;;10.93;;
40314;SDS011;26021;45.640;11.302;2023-11-19T03:55:06;15.52;;;10.88;;
40314;SDS011;26021;45.640;11.302;2023-11-19T03:57:33;17.75;;;11.98;;
40314;SDS011;26021;45.640;11.302;2023-11-19T03:59:59;16.80;;;10.57;;
40314;SDS011;26021;45.640;11.302;2023-11-19T04:02:25;16.20;;;9.82;;
40314;SDS011;26021;45.640;11.302;2023-11-19T04:04:53;19.83;;;11.55;;
40314;SDS011;26021;45.640;11.302;2023-11-19T04:07:19;15.52;;;10.55;;
40314;SDS011;26021;45.640;11.302;2023-11-19T04:09:45;14.60;;;10.48;;
40314;SDS011;26021;45.640;11.302;2023-11-19T04:12:11;16.35;;;10.20;;
40314;SDS011;26021;45.640;11.302;2023-11-19T04:14:37;13.57;;;8.98;;
40314;SDS011;26021;45.640;11.302;2023-11-19T04:17:02;17.75;;;10.70;;
40314;SDS011;26021;45.640;11.302;2023-11-19T04:19:28;14.32;;;10.68;;
40314;SDS011;26021;45.640;11.302;2023-11-19T04:21:53;15.45;;;10.48;;
40314;SDS011;26021;45.640;11.302;2023-11-19T04:24:19;13.55;;;9.50;;
40314;SDS011;26021;45.640;11.302;2023-11-19T04:26:45;14.95;;;10.43;;
40314;SDS011;26021;45.640;11.302;2023-11-19T04:29:12;15.65;;;9.57;;
40314;SDS011;26021;45.640;11.302;2023-11-19T04:31:38;15.23;;;10.07;;
40314;SDS011;26021;45.640;11.302;2023-11-19T04:34:04;15.27;;;10.15;;
40314;SDS011;26021;45.640;11.302;2023-11-19T04:36:31;13.73;;;9.52;;
40314;SDS011;26021;45.640;11.302;2023-11-19T04:38:58;16.55;;;9.90;;
40314;SDS011;26021;45.640;11.302;2023-11-19T04:41:24;13.35;;;9.25;;
40314;SDS011;26021;45.640;11.302;2023-11-19T04:43:50;13.90;;;9.25;;
40314;SDS011;26021;45.640;11.302;2023-11-19T04:46:15;11.45;;;8.25;;
40314;SDS011;26021;45.640;11.302;2023-11-19T04:48:41;16.10;;;9.82;;
40314;SDS011;26021;45.640;11.302;2023-11-19T04:51:07;16.13;;;10.65;;
40314;SDS011;26021;45.640;11.302;2023-11-19T04:53:34;14.23;;;9.55;;
40314;SDS011;26021;45.640;11.302;2023-11-19T04:56:00;16.30;;;9.82;;
40314;SDS011;26021;45.640;11.302;2023-11-19T04:58:25;15.82;;;10.65;;
40314;SDS011;26021;45.640;11.302;2023-11-19T05:00:50;17.05;;;10.68;;
40314;SDS011;26021;45.640;11.302;2023-11-19T05:03:16;14.82;;;10.30;;
40314;SDS011;26021;45.640;11.302;2023-11-19T05:05:41;16.95;;;11.80;;
40314;SDS011;26021;45.640;11.302;2023-11-19T05:08:07;18.35;;;12.55;;
40314;SDS011;26021;45.640;11.302;2023-11-19T05:10:32;22.70;;;12.73;;
40314;SDS011;26021;45.640;11.302;2023-11-19T05:12:58;20.63;;;14.73;;
40314;SDS011;26021;45.640;11.302;2023-11-19T05:15:23;17.48;;;12.25;;
40314;SDS011;26021;45.640;11.302;2023-11-19T05:17:49;20.08;;;12.80;;
40314;SDS011;26021;45.640;11.302;2023-11-19T05:20:14;21.83;;;12.80;;
40314;SDS011;26021;45.640;11.302;2023-11-19T05:22:40;18.67;;;12.52;;
40314;SDS011;26021;45.640;11.302;2023-11-19T05:25:07;20.23;;;12.07;;
40314;SDS011;26021;45.640;11.302;2023-11-19T05:27:34;16.63;;;11.38;;
40314;SDS011;26021;45.640;11.302;2023-11-19T05:30:01;17.35;;;11.93;;
40314;SDS011;26021;45.640;11.302;2023-11-19T05:32:27;18.20;;;12.45;;
40314;SDS011;26021;45.640;11.302;2023-11-19T05:34:52;18.13;;;11.27;;
40314;SDS011;26021;45.640;11.302;2023-11-19T05:37:17;18.27;;;11.63;;
40314;SDS011;26021;45.640;11.302;2023-11-19T05:39:44;17.92;;;12.05;;
40314;SDS011;26021;45.640;11.302;2023-11-19T05:42:10;18.58;;;11.70;;
40314;SDS011;26021;45.640;11.302;2023-11-19T05:44:35;16.92;;;11.85;;
40314;SDS011;26021;45.640;11.302;2023-11-19T05:47:01;18.33;;;11.30;;
40314;SDS011;26021;45.640;11.302;2023-11-19T05:49:27;19.23;;;12.23;;
40314;SDS011;26021;45.640;11.302;2023-11-19T05:51:52;14.57;;;10.65;;
40314;SDS011;26021;45.640;11.302;2023-11-19T05:54:20;14.82;;;11.05;;
40314;SDS011;26021;45.640;11.302;2023-11-19T05:56:49;16.38;;;11.15;;
40314;SDS011;26021;45.640;11.302;2023-11-19T05:59:15;17.75;;;11.68;;
40314;SDS011;26021;45.640;11.302;2023-11-19T06:01:43;18.08;;;11.75;;
40314;SDS011;26021;45.640;11.302;2023-11-19T06:04:09;19.02;;;11.90;;
40314;SDS011;26021;45.640;11.302;2023-11-19T06:06:35;17.90;;;11.75;;
40314;SDS011;26021;45.640;11.302;2023-11-19T06:09:01;19.27;;;13.02;;
40314;SDS011;26021;45.640;11.302;2023-11-19T06:11:27;17.05;;;11.30;;
40314;SDS011;26021;45.640;11.302;2023-11-19T06:13:53;16.83;;;11.82;;
40314;SDS011;26021;45.640;11.302;2023-11-19T06:16:18;17.00;;;12.15;;
40314;SDS011;26021;45.640;11.302;2023-11-19T06:18:44;18.65;;;11.85;;
40314;SDS011;26021;45.640;11.302;2023-11-19T06:21:10;17.38;;;11.43;;
40314;SDS011;26021;45.640;11.302;2023-11-19T06:23:36;20.00;;;12.27;;
40314;SDS011;26021;45.640;11.302;2023-11-19T06:26:02;16.98;;;11.88;;
40314;SDS011;26021;45.640;11.302;2023-11-19T06:28:27;17.00;;;11.85;;
40314;SDS011;26021;45.640;11.302;2023-11-19T06:30:52;20.60;;;12.65;;
40314;SDS011;26021;45.640;11.302;2023-11-19T06:33:18;18.00;;;12.38;;
40314;SDS011;26021;45.640;11.302;2023-11-19T06:35:43;16.95;;;12.00;;
40314;SDS011;26021;45.640;11.302;2023-11-19T06:38:10;17.70;;;11.90;;
40314;SDS011;26021;45.640;11.302;2023-11-19T06:40:35;20.05;;;13.35;;
40314;SDS011;26021;45.640;11.302;2023-11-19T06:43:01;21.40;;;13.35;;
40314;SDS011;26021;45.640;11.302;2023-11-19T06:45:28;19.95;;;12.85;;
40314;SDS011;26021;45.640;11.302;2023-11-19T06:47:54;34.60;;;28.67;;
40314;SDS011;26021;45.640;11.302;2023-11-19T06:50:20;21.30;;;14.77;;
40314;SDS011;26021;45.640;11.302;2023-11-19T06:52:45;18.55;;;12.77;;
40314;SDS011;26021;45.640;11.302;2023-11-19T06:55:11;17.92;;;11.82;;
40314;SDS011;26021;45.640;11.302;2023-11-19T06:57:37;23.85;;;13.57;;
40314;SDS011;26021;45.640;11.302;2023-11-19T07:00:02;33.22;;;21.52;;
40314;SDS011;26021;45.640;11.302;2023-11-19T07:02:30;21.65;;;15.07;;
40314;SDS011;26021;45.640;11.302;2023-11-19T07:04:56;21.65;;;14.02;;
40314;SDS011;26021;45.640;11.302;2023-11-19T07:07:22;20.42;;;14.20;;
40314;SDS011;26021;45.640;11.302;2023-11-19T07:09:47;22.83;;;14.68;;
40314;SDS011;26021;45.640;11.302;2023-11-19T07:12:13;20.27;;;13.55;;
40314;SDS011;26021;45.640;11.302;2023-11-19T07:14:39;18.83;;;13.15;;
40314;SDS011;26021;45.640;11.302;2023-11-19T07:17:05;17.17;;;12.13;;
40314;SDS011;26021;45.640;11.302;2023-11-19T07:19:31;18.98;;;13.10;;
40314;SDS011;26021;45.640;11.302;2023-11-19T07:21:56;18.60;;;12.75;;
40314;SDS011;26021;45.640;11.302;2023-11-19T07:24:22;17.27;;;12.50;;
40314;SDS011;26021;45.640;11.302;2023-11-19T07:26:47;17.52;;;12.55;;
40314;SDS011;26021;45.640;11.302;2023-11-19T07:29:13;18.48;;;12.60;;
40314;SDS011;26021;45.640;11.302;2023-11-19T07:31:41;19.17;;;12.68;;
40314;SDS011;26021;45.640;11.302;2023-11-19T07:34:09;19.25;;;13.13;;
40314;SDS011;26021;45.640;11.302;2023-11-19T07:36:36;21.75;;;13.23;;
40314;SDS011;26021;45.640;11.302;2023-11-19T07:39:03;19.08;;;13.52;;
40314;SDS011;26021;45.640;11.302;2023-11-19T07:41:30;16.13;;;12.27;;
40314;SDS011;26021;45.640;11.302;2023-11-19T07:43:56;19.55;;;13.00;;
40314;SDS011;26021;45.640;11.302;2023-11-19T07:46:21;17.48;;;11.70;;
40314;SDS011;26021;45.640;11.302;2023-11-19T07:48:47;16.40;;;12.52;;
40314;SDS011;26021;45.640;11.302;2023-11-19T07:51:12;17.08;;;12.15;;
40314;SDS011;26021;45.640;11.302;2023-11-19T07:53:39;16.08;;;12.07;;
40314;SDS011;26021;45.640;11.302;2023-11-19T07:56:05;21.08;;;13.65;;
40314;SDS011;26021;45.640;11.302;2023-11-19T07:58:32;20.15;;;13.15;;
40314;SDS011;26021;45.640;11.302;2023-11-19T08:00:57;21.65;;;14.45;;
40314;SDS011;26021;45.640;11.302;2023-11-19T08:03:22;24.90;;;14.75;;
40314;SDS011;26021;45.640;11.302;2023-11-19T08:05:48;17.95;;;12.52;;
40314;SDS011;26021;45.640;11.302;2023-11-19T08:08:14;18.98;;;12.90;;
40314;SDS011;26021;45.640;11.302;2023-11-19T08:10:40;16.83;;;12.23;;
40314;SDS011;26021;45.640;11.302;2023-11-19T08:13:06;16.83;;;12.32;;
40314;SDS011;26021;45.640;11.302;2023-11-19T08:15:32;19.23;;;12.27;;
40314;SDS011;26021;45.640;11.302;2023-11-19T08:17:58;17.95;;;13.00;;
40314;SDS011;26021;45.640;11.302;2023-11-19T08:20:23;20.80;;;14.40;;
40314;SDS011;26021;45.640;11.302;2023-11-19T08:22:49;18.65;;;12.70;;
40314;SDS011;26021;45.640;11.302;2023-11-19T08:25:14;18.50;;;13.02;;
40314;SDS011;26021;45.640;11.302;2023-11-19T08:27:40;22.10;;;15.65;;
40314;SDS011;26021;45.640;11.302;2023-11-19T08:30:05;18.08;;;13.68;;
40314;SDS011;26021;45.640;11.302;2023-11-19T08:32:32;17.77;;;11.95;;
40314;SDS011;26021;45.640;11.302;2023-11-19T08:34:58;16.23;;;11.50;;
40314;SDS011;26021;45.640;11.302;2023-11-19T08:37:23;17.10;;;12.07;;
40314;SDS011;26021;45.640;11.302;2023-11-19T08:39:49;17.80;;;12.45;;
40314;SDS011;26021;45.640;11.302;2023-11-19T08:42:15;18.65;;;13.38;;
40314;SDS011;26021;45.640;11.302;2023-11-19T08:44:42;17.90;;;12.00;;
40314;SDS011;26021;45.640;11.302;2023-11-19T08:47:08;16.67;;;12.32;;
40314;SDS011;26021;45.640;11.302;2023-11-19T08:49:34;19.17;;;12.10;;
40314;SDS011;26021;45.640;11.302;2023-11-19T08:52:00;15.05;;;12.30;;
40314;SDS011;26021;45.640;11.302;2023-11-19T08:54:26;18.20;;;12.32;;
40314;SDS011;26021;45.640;11.302;2023-11-19T08:56:51;16.80;;;12.95;;
40314;SDS011;26021;45.640;11.302;2023-11-19T08:59:16;17.88;;;13.23;;
40314;SDS011;26021;45.640;11.302;2023-11-19T09:01:42;19.13;;;13.43;;
40314;SDS011;26021;45.640;11.302;2023-11-19T09:04:08;19.42;;;14.73;;
40314;SDS011;26021;45.640;11.302;2023-11-19T09:06:35;18.90;;;14.57;;
40314;SDS011;26021;45.640;11.302;2023-11-19T09:09:00;21.90;;;16.05;;
40314;SDS011;26021;45.640;11.302;2023-11-19T09:11:28;26.50;;;16.15;;
40314;SDS011;26021;45.640;11.302;2023-11-19T09:13:54;24.63;;;16.25;;
40314;SDS011;26021;45.640;11.302;2023-11-19T09:16:19;19.25;;;14.70;;
40314;SDS011;26021;45.640;11.302;2023-11-19T09:18:45;17.17;;;12.98;;
40314;SDS011;26021;45.640;11.302;2023-11-19T09:21:11;19.98;;;14.82;;
40314;SDS011;26021;45.640;11.302;2023-11-19T09:23:37;21.27;;;15.45;;
40314;SDS011;26021;45.640;11.302;2023-11-19T09:26:04;21.55;;;15.65;;
40314;SDS011;26021;45.640;11.302;2023-11-19T09:28:31;19.25;;;14.93;;
40314;SDS011;26021;45.640;11.302;2023-11-19T09:30:57;19.95;;;14.80;;
40314;SDS011;26021;45.640;11.302;2023-11-19T09:33:24;23.40;;;15.05;;
40314;SDS011;26021;45.640;11.302;2023-11-19T09:35:49;21.65;;;14.55;;
40314;SDS011;26021;45.640;11.302;2023-11-19T09:38:16;19.90;;;12.88;;
40314;SDS011;26021;45.640;11.302;2023-11-19T09:40:42;23.40;;;14.05;;
40314;SDS011;26021;45.640;11.302;2023-11-19T09:43:07;29.85;;;21.77;;
40314;SDS011;26021;45.640;11.302;2023-11-19T09:45:44;23.45;;;17.30;;
40314;SDS011;26021;45.640;11.302;2023-11-19T09:48:14;21.90;;;15.05;;
40314;SDS011;26021;45.640;11.302;2023-11-19T09:50:43;20.92;;;14.30;;
40314;SDS011;26021;45.640;11.302;2023-11-19T09:53:10;18.30;;;13.60;;
40314;SDS011;26021;45.640;11.302;2023-11-19T09:55:35;18.33;;;14.05;;
40314;SDS011;26021;45.640;11.302;2023-11-19T09:58:01;19.58;;;14.75;;
40314;SDS011;26021;45.640;11.302;2023-11-19T10:00:27;21.27;;;14.50;;
40314;SDS011;26021;45.640;11.302;2023-11-19T10:02:52;22.30;;;14.57;;
40314;SDS011;26021;45.640;11.302;2023-11-19T10:05:19;19.77;;;14.88;;
40314;SDS011;26021;45.640;11.302;2023-11-19T10:07:47;20.55;;;14.57;;
40314;SDS011;26021;45.640;11.302;2023-11-19T10:10:13;19.48;;;14.80;;
40314;SDS011;26021;45.640;11.302;2023-11-19T10:12:43;22.55;;;14.88;;
40314;SDS011;26021;45.640;11.302;2023-11-19T10:15:09;20.05;;;14.80;;
40314;SDS011;26021;45.640;11.302;2023-11-19T10:17:44;20.73;;;14.90;;
40314;SDS011;26021;45.640;11.302;2023-11-19T10:20:10;22.08;;;15.48;;
40314;SDS011;26021;45.640;11.302;2023-11-19T10:22:38;22.70;;;15.35;;
40314;SDS011;26021;45.640;11.302;2023-11-19T10:25:23;22.95;;;15.73;;
40314;SDS011;26021;45.640;11.302;2023-11-19T10:27:50;21.17;;;15.00;;
40314;SDS011;26021;45.640;11.302;2023-11-19T10:30:17;21.13;;;14.70;;
40314;SDS011;26021;45.640;11.302;2023-11-19T10:33:02;23.73;;;16.52;;
40314;SDS011;26021;45.640;11.302;2023-11-19T10:35:27;24.65;;;17.58;;
40314;SDS011;26021;45.640;11.302;2023-11-19T10:37:53;23.05;;;16.63;;
40314;SDS011;26021;45.640;11.302;2023-11-19T10:40:18;22.05;;;16.83;;
40314;SDS011;26021;45.640;11.302;2023-11-19T10:42:44;22.38;;;16.10;;
40314;SDS011;26021;45.640;11.302;2023-11-19T10:45:22;22.73;;;16.80;;
40314;SDS011;26021;45.640;11.302;2023-11-19T10:47:51;23.92;;;17.27;;
40314;SDS011;26021;45.640;11.302;2023-11-19T10:50:17;23.40;;;16.45;;
40314;SDS011;26021;45.640;11.302;2023-11-19T10:52:43;25.25;;;17.65;;
40314;SDS011;26021;45.640;11.302;2023-11-19T10:55:11;25.08;;;17.60;;
40314;SDS011;26021;45.640;11.302;2023-11-19T10:57:40;26.85;;;18.08;;
40314;SDS011;26021;45.640;11.302;2023-11-19T11:00:16;25.13;;;18.05;;
40314;SDS011;26021;45.640;11.302;2023-11-19T11:02:55;25.92;;;18.27;;
40314;SDS011;26021;45.640;11.302;2023-11-19T11:05:24;26.00;;;17.58;;
40314;SDS011;26021;45.640;11.302;2023-11-19T11:07:52;26.20;;;18.98;;
40314;SDS011;26021;45.640;11.302;2023-11-19T11:10:20;25.98;;;16.95;;
40314;SDS011;26021;45.640;11.302;2023-11-19T11:12:51;27.55;;;19.00;;
40314;SDS011;26021;45.640;11.302;2023-11-19T11:15:22;21.90;;;17.27;;
40314;SDS011;26021;45.640;11.302;2023-11-19T11:17:52;24.35;;;17.83;;
40314;SDS011;26021;45.640;11.302;2023-11-19T11:20:22;26.42;;;17.90;;
40314;SDS011;26021;45.640;11.302;2023-11-19T11:23:00;25.55;;;19.45;;
40314;SDS011;26021;45.640;11.302;2023-11-19T11:36:26;24.48;;;18.45;;
40314;SDS011;26021;45.640;11.302;2023-11-19T11:38:52;26.58;;;18.15;;
40314;SDS011;26021;45.640;11.302;2023-11-19T11:41:22;26.77;;;19.38;;
40314;SDS011;26021;45.640;11.302;2023-11-19T11:49:01;27.23;;;20.10;;
40314;SDS011;26021;45.640;11.302;2023-11-19T11:54:09;26.63;;;19.42;;
40314;SDS011;26021;45.640;11.302;2023-11-19T11:56:38;27.23;;;18.88;;
40314;SDS011;26021;45.640;11.302;2023-11-19T11:59:19;24.23;;;18.25;;
40314;SDS011;26021;45.640;11.302;2023-11-19T12:01:59;23.67;;;17.60;;
40314;SDS011;26021;45.640;11.302;2023-11-19T12:04:28;27.67;;;18.85;;
40314;SDS011;26021;45.640;11.302;2023-11-19T12:07:04;28.63;;;18.88;;
40314;SDS011;26021;45.640;11.302;2023-11-19T12:09:36;27.13;;;17.98;;
40314;SDS011;26021;45.640;11.302;2023-11-19T12:22:40;24.63;;;18.63;;
40314;SDS011;26021;45.640;11.302;2023-11-19T12:25:07;28.67;;;20.27;;
40314;SDS011;26021;45.640;11.302;2023-11-19T12:27:34;27.35;;;20.17;;
40314;SDS011;26021;45.640;11.302;2023-11-19T12:30:00;26.42;;;19.25;;
40314;SDS011;26021;45.640;11.302;2023-11-19T12:32:42;26.88;;;19.55;;
40314;SDS011;26021;45.640;11.302;2023-11-19T12:35:09;25.40;;;18.80;;
40314;SDS011;26021;45.640;11.302;2023-11-19T12:37:39;28.42;;;19.52;;
40314;SDS011;26021;45.640;11.302;2023-11-19T12:40:15;29.92;;;19.73;;
40314;SDS011;26021;45.640;11.302;2023-11-19T12:42:46;27.58;;;19.85;;
40314;SDS011;26021;45.640;11.302;2023-11-19T12:45:12;27.27;;;19.90;;
40314;SDS011;26021;45.640;11.302;2023-11-19T12:47:41;27.92;;;19.85;;
40314;SDS011;26021;45.640;11.302;2023-11-19T12:50:08;27.63;;;20.50;;
40314;SDS011;26021;45.640;11.302;2023-11-19T12:52:37;28.38;;;20.85;;
40314;SDS011;26021;45.640;11.302;2023-11-19T12:55:25;26.42;;;20.25;;
40314;SDS011;26021;45.640;11.302;2023-11-19T12:57:51;28.25;;;19.67;;
40314;SDS011;26021;45.640;11.302;2023-11-19T13:00:21;29.30;;;20.23;;
40314;SDS011;26021;45.640;11.302;2023-11-19T13:02:55;27.58;;;21.02;;
40314;SDS011;26021;45.640;11.302;2023-11-19T13:08:04;28.75;;;20.40;;
40314;SDS011;26021;45.640;11.302;2023-11-19T13:13:21;31.30;;;22.08;;
40314;SDS011;26021;45.640;11.302;2023-11-19T13:15:47;30.63;;;21.23;;
40314;SDS011;26021;45.640;11.302;2023-11-19T13:18:13;27.83;;;21.10;;
40314;SDS011;26021;45.640;11.302;2023-11-19T13:20:41;26.95;;;20.63;;
40314;SDS011;26021;45.640;11.302;2023-11-19T13:23:07;29.35;;;21.45;;
40314;SDS011;26021;45.640;11.302;2023-11-19T13:25:32;31.15;;;21.65;;
40314;SDS011;26021;45.640;11.302;2023-11-19T13:27:58;28.70;;;21.02;;
40314;SDS011;26021;45.640;11.302;2023-11-19T13:30:24;28.65;;;21.77;;
40314;SDS011;26021;45.640;11.302;2023-11-19T13:32:51;29.33;;;22.02;;
40314;SDS011;26021;45.640;11.302;2023-11-19T13:35:17;32.20;;;22.92;;
40314;SDS011;26021;45.640;11.302;2023-11-19T13:37:43;26.83;;;21.33;;
40314;SDS011;26021;45.640;11.302;2023-11-19T13:40:10;28.90;;;21.20;;
40314;SDS011;26021;45.640;11.302;2023-11-19T13:42:40;28.33;;;21.73;;
40314;SDS011;26021;45.640;11.302;2023-11-19T13:45:10;29.30;;;21.40;;
40314;SDS011;26021;45.640;11.302;2023-11-19T13:47:39;29.73;;;22.17;;
40314;SDS011;26021;45.640;11.302;2023-11-19T13:50:16;32.33;;;21.67;;
40314;SDS011;26021;45.640;11.302;2023-11-19T13:52:45;25.90;;;21.13;;
40314;SDS011;26021;45.640;11.302;2023-11-19T13:55:12;29.75;;;22.33;;
40314;SDS011;26021;45.640;11.302;2023-11-19T13:57:38;30.30;;;22.23;;
40314;SDS011;26021;45.640;11.302;2023-11-19T14:00:05;29.60;;;22.27;;
40314;SDS011;26021;45.640;11.302;2023-11-19T14:02:35;33.45;;;21.42;;
40314;SDS011;26021;45.640;11.302;2023-11-19T14:05:01;30.60;;;21.83;;
40314;SDS011;26021;45.640;11.302;2023-11-19T14:07:26;29.23;;;21.58;;
40314;SDS011;26021;45.640;11.302;2023-11-19T14:09:53;33.38;;;24.05;;
40314;SDS011;26021;45.640;11.302;2023-11-19T14:12:19;30.35;;;21.80;;
40314;SDS011;26021;45.640;11.302;2023-11-19T14:14:45;30.70;;;22.75;;
40314;SDS011;26021;45.640;11.302;2023-11-19T14:17:10;32.50;;;22.80;;
40314;SDS011;26021;45.640;11.302;2023-11-19T14:19:36;34.72;;;25.15;;
40314;SDS011;26021;45.640;11.302;2023-11-19T14:22:02;32.92;;;23.85;;
40314;SDS011;26021;45.640;11.302;2023-11-19T14:24:27;29.95;;;23.67;;
40314;SDS011;26021;45.640;11.302;2023-11-19T14:26:53;35.70;;;29.05;;
40314;SDS011;26021;45.640;11.302;2023-11-19T14:29:18;28.95;;;23.02;;
40314;SDS011;26021;45.640;11.302;2023-11-19T14:31:44;30.48;;;25.15;;
40314;SDS011;26021;45.640;11.302;2023-11-19T14:34:09;32.60;;;24.67;;
40314;SDS011;26021;45.640;11.302;2023-11-19T14:36:35;33.22;;;23.95;;
40314;SDS011;26021;45.640;11.302;2023-11-19T14:39:00;36.97;;;27.05;;
40314;SDS011;26021;45.640;11.302;2023-11-19T14:41:26;39.35;;;28.80;;
40314;SDS011;26021;45.640;11.302;2023-11-19T14:43:51;35.70;;;25.77;;